sensor_id;sensor_type;location;lat;lon;timestamp;P1;durP1;ratioP1;P2;durP2;ratioP2
63807;SDS011;49961;43.970;22.868;2022-09-02T00:00:33;10.03;;;8.07;;
63807;SDS011;49961;43.970;22.868;2022-09-02T00:01:36;8.47;;;7.60;;
63807;SDS011;49961;43.970;22.868;2022-09-02T00:02:39;8.97;;;8.07;;
63807;SDS011;49961;43.970;22.868;2022-09-02T00:03:39;12.00;;;8.27;;
63807;SDS011;49961;43.970;22.868;2022-09-02T00:04:40;8.83;;;7.90;;
63807;SDS011;49961;43.970;22.868;2022-09-02T00:05:42;9.47;;;7.27;;
63807;SDS011;49961;43.970;22.868;2022-09-02T00:06:43;9.10;;;7.90;;
63807;SDS011;49961;43.970;22.868;2022-09-02T00:07:45;8.67;;;7.87;;
63807;SDS011;49961;43.970;22.868;2022-09-02T00:08:46;8.50;;;7.70;;
63807;SDS011;49961;43.970;22.868;2022-09-02T00:09:46;10.33;;;7.63;;
63807;SDS011;49961;43.970;22.868;2022-09-02T00:10:47;10.30;;;8.50;;
63807;SDS011;49961;43.970;22.868;2022-09-02T00:11:48;9.73;;;7.83;;
63807;SDS011;49961;43.970;22.868;2022-09-02T00:12:49;9.00;;;8.10;;
63807;SDS011;49961;43.970;22.868;2022-09-02T00:13:50;11.00;;;8.17;;
63807;SDS011;49961;43.970;22.868;2022-09-02T00:14:51;9.20;;;7.77;;
63807;SDS011;49961;43.970;22.868;2022-09-02T00:15:51;8.87;;;8.03;;
63807;SDS011;49961;43.970;22.868;2022-09-02T00:16:51;10.53;;;7.90;;
63807;SDS011;49961;43.970;22.868;2022-09-02T00:17:52;10.90;;;8.00;;
63807;SDS011;49961;43.970;22.868;2022-09-02T00:18:53;9.47;;;8.03;;
63807;SDS011;49961;43.970;22.868;2022-09-02T00:19:55;10.33;;;8.20;;
63807;SDS011;49961;43.970;22.868;2022-09-02T00:20:55;8.57;;;7.30;;
63807;SDS011;49961;43.970;22.868;2022-09-02T00:21:56;8.67;;;7.87;;
63807;SDS011;49961;43.970;22.868;2022-09-02T00:22:58;9.43;;;8.40;;
63807;SDS011;49961;43.970;22.868;2022-09-02T00:23:59;9.20;;;7.80;;
63807;SDS011;49961;43.970;22.868;2022-09-02T00:25:00;10.90;;;8.20;;
63807;SDS011;49961;43.970;22.868;2022-09-02T00:26:00;9.23;;;8.30;;
63807;SDS011;49961;43.970;22.868;2022-09-02T00:27:01;9.13;;;8.07;;
63807;SDS011;49961;43.970;22.868;2022-09-02T00:28:02;9.73;;;7.70;;
63807;SDS011;49961;43.970;22.868;2022-09-02T00:29:04;8.57;;;7.67;;
63807;SDS011;49961;43.970;22.868;2022-09-02T00:30:05;11.03;;;7.80;;
63807;SDS011;49961;43.970;22.868;2022-09-02T00:31:06;11.97;;;8.50;;
63807;SDS011;49961;43.970;22.868;2022-09-02T00:32:07;11.43;;;8.40;;
63807;SDS011;49961;43.970;22.868;2022-09-02T00:33:08;9.93;;;8.80;;
63807;SDS011;49961;43.970;22.868;2022-09-02T00:34:09;10.63;;;8.70;;
63807;SDS011;49961;43.970;22.868;2022-09-02T00:35:10;12.00;;;8.47;;
63807;SDS011;49961;43.970;22.868;2022-09-02T00:36:11;10.17;;;8.60;;
63807;SDS011;49961;43.970;22.868;2022-09-02T00:37:12;9.60;;;8.30;;
63807;SDS011;49961;43.970;22.868;2022-09-02T00:38:13;10.23;;;8.33;;
63807;SDS011;49961;43.970;22.868;2022-09-02T00:39:14;9.13;;;7.90;;
63807;SDS011;49961;43.970;22.868;2022-09-02T00:40:15;10.90;;;7.93;;
63807;SDS011;49961;43.970;22.868;2022-09-02T00:41:17;10.17;;;8.23;;
63807;SDS011;49961;43.970;22.868;2022-09-02T00:42:21;9.43;;;8.20;;
63807;SDS011;49961;43.970;22.868;2022-09-02T00:44:48;13.60;;;8.00;;
63807;SDS011;49961;43.970;22.868;2022-09-02T00:45:49;9.00;;;7.73;;
63807;SDS011;49961;43.970;22.868;2022-09-02T00:46:50;9.77;;;8.20;;
63807;SDS011;49961;43.970;22.868;2022-09-02T00:47:50;8.70;;;7.90;;
63807;SDS011;49961;43.970;22.868;2022-09-02T00:49:07;9.30;;;8.37;;
63807;SDS011;49961;43.970;22.868;2022-09-02T00:50:25;10.93;;;8.57;;
63807;SDS011;49961;43.970;22.868;2022-09-02T00:51:32;9.70;;;8.23;;
63807;SDS011;49961;43.970;22.868;2022-09-02T00:52:40;9.63;;;8.27;;
63807;SDS011;49961;43.970;22.868;2022-09-02T00:53:47;9.10;;;8.03;;
63807;SDS011;49961;43.970;22.868;2022-09-02T00:54:49;10.03;;;9.00;;
63807;SDS011;49961;43.970;22.868;2022-09-02T00:55:55;9.93;;;8.77;;
63807;SDS011;49961;43.970;22.868;2022-09-02T00:56:57;10.80;;;9.30;;
63807;SDS011;49961;43.970;22.868;2022-09-02T00:58:06;10.23;;;9.10;;
63807;SDS011;49961;43.970;22.868;2022-09-02T00:59:14;11.00;;;8.63;;
63807;SDS011;49961;43.970;22.868;2022-09-02T01:00:24;11.37;;;9.10;;
63807;SDS011;49961;43.970;22.868;2022-09-02T01:01:30;10.60;;;8.37;;
63807;SDS011;49961;43.970;22.868;2022-09-02T01:02:31;11.60;;;8.53;;
63807;SDS011;49961;43.970;22.868;2022-09-02T01:03:32;11.30;;;8.37;;
63807;SDS011;49961;43.970;22.868;2022-09-02T01:04:32;12.17;;;8.43;;
63807;SDS011;49961;43.970;22.868;2022-09-02T01:05:36;8.80;;;7.90;;
63807;SDS011;49961;43.970;22.868;2022-09-02T01:06:41;8.90;;;7.27;;
63807;SDS011;49961;43.970;22.868;2022-09-02T01:07:42;7.83;;;7.00;;
63807;SDS011;49961;43.970;22.868;2022-09-02T01:08:45;10.43;;;7.37;;
63807;SDS011;49961;43.970;22.868;2022-09-02T01:09:48;8.67;;;7.87;;
63807;SDS011;49961;43.970;22.868;2022-09-02T01:10:51;7.97;;;7.10;;
63807;SDS011;49961;43.970;22.868;2022-09-02T01:11:54;8.43;;;6.87;;
63807;SDS011;49961;43.970;22.868;2022-09-02T01:12:56;8.40;;;7.00;;
63807;SDS011;49961;43.970;22.868;2022-09-02T01:13:58;8.07;;;7.27;;
63807;SDS011;49961;43.970;22.868;2022-09-02T01:15:01;9.67;;;7.17;;
63807;SDS011;49961;43.970;22.868;2022-09-02T01:16:18;9.10;;;7.23;;
63807;SDS011;49961;43.970;22.868;2022-09-02T01:17:22;9.73;;;6.90;;
63807;SDS011;49961;43.970;22.868;2022-09-02T01:18:26;9.37;;;7.00;;
63807;SDS011;49961;43.970;22.868;2022-09-02T01:19:31;8.20;;;7.40;;
63807;SDS011;49961;43.970;22.868;2022-09-02T01:20:34;8.73;;;6.87;;
63807;SDS011;49961;43.970;22.868;2022-09-02T01:21:35;9.30;;;6.87;;
63807;SDS011;49961;43.970;22.868;2022-09-02T01:22:36;8.17;;;6.80;;
63807;SDS011;49961;43.970;22.868;2022-09-02T01:23:38;8.03;;;7.23;;
63807;SDS011;49961;43.970;22.868;2022-09-02T01:24:39;10.40;;;7.63;;
63807;SDS011;49961;43.970;22.868;2022-09-02T01:25:39;8.30;;;7.47;;
63807;SDS011;49961;43.970;22.868;2022-09-02T01:26:40;9.30;;;7.50;;
63807;SDS011;49961;43.970;22.868;2022-09-02T01:27:41;9.07;;;7.20;;
63807;SDS011;49961;43.970;22.868;2022-09-02T01:28:42;9.13;;;7.17;;
63807;SDS011;49961;43.970;22.868;2022-09-02T01:29:43;14.33;;;7.43;;
63807;SDS011;49961;43.970;22.868;2022-09-02T01:30:46;8.23;;;7.17;;
63807;SDS011;49961;43.970;22.868;2022-09-02T01:31:49;8.53;;;7.07;;
63807;SDS011;49961;43.970;22.868;2022-09-02T01:32:50;8.77;;;7.87;;
63807;SDS011;49961;43.970;22.868;2022-09-02T01:33:50;8.00;;;7.20;;
63807;SDS011;49961;43.970;22.868;2022-09-02T01:34:51;8.70;;;7.50;;
63807;SDS011;49961;43.970;22.868;2022-09-02T01:35:52;8.77;;;7.73;;
63807;SDS011;49961;43.970;22.868;2022-09-02T01:36:53;10.60;;;8.20;;
63807;SDS011;49961;43.970;22.868;2022-09-02T01:37:54;10.30;;;7.60;;
63807;SDS011;49961;43.970;22.868;2022-09-02T01:38:56;8.03;;;7.23;;
63807;SDS011;49961;43.970;22.868;2022-09-02T01:39:57;10.83;;;7.10;;
63807;SDS011;49961;43.970;22.868;2022-09-02T01:40:58;8.30;;;7.23;;
63807;SDS011;49961;43.970;22.868;2022-09-02T01:41:58;8.57;;;7.47;;
63807;SDS011;49961;43.970;22.868;2022-09-02T01:43:04;9.43;;;8.03;;
63807;SDS011;49961;43.970;22.868;2022-09-02T01:44:07;10.03;;;8.20;;
63807;SDS011;49961;43.970;22.868;2022-09-02T01:45:09;9.87;;;7.70;;
63807;SDS011;49961;43.970;22.868;2022-09-02T01:46:10;9.77;;;7.70;;
63807;SDS011;49961;43.970;22.868;2022-09-02T01:47:15;8.70;;;7.53;;
63807;SDS011;49961;43.970;22.868;2022-09-02T01:48:20;7.80;;;7.00;;
63807;SDS011;49961;43.970;22.868;2022-09-02T01:49:21;8.50;;;7.10;;
63807;SDS011;49961;43.970;22.868;2022-09-02T01:50:22;9.80;;;7.90;;
63807;SDS011;49961;43.970;22.868;2022-09-02T01:51:23;8.47;;;7.60;;
63807;SDS011;49961;43.970;22.868;2022-09-02T01:52:25;8.90;;;7.40;;
63807;SDS011;49961;43.970;22.868;2022-09-02T01:53:27;11.97;;;8.13;;
63807;SDS011;49961;43.970;22.868;2022-09-02T01:54:28;12.30;;;7.37;;
63807;SDS011;49961;43.970;22.868;2022-09-02T01:55:29;9.67;;;7.63;;
63807;SDS011;49961;43.970;22.868;2022-09-02T01:56:31;8.83;;;7.63;;
63807;SDS011;49961;43.970;22.868;2022-09-02T01:57:31;8.77;;;7.47;;
63807;SDS011;49961;43.970;22.868;2022-09-02T01:58:32;9.50;;;7.27;;
63807;SDS011;49961;43.970;22.868;2022-09-02T01:59:32;8.07;;;7.27;;
63807;SDS011;49961;43.970;22.868;2022-09-02T02:00:32;9.50;;;7.50;;
63807;SDS011;49961;43.970;22.868;2022-09-02T02:01:34;9.97;;;7.60;;
63807;SDS011;49961;43.970;22.868;2022-09-02T02:02:34;9.37;;;7.50;;
63807;SDS011;49961;43.970;22.868;2022-09-02T02:03:36;9.57;;;7.60;;
63807;SDS011;49961;43.970;22.868;2022-09-02T02:04:37;12.87;;;8.17;;
63807;SDS011;49961;43.970;22.868;2022-09-02T02:05:37;8.27;;;7.43;;
63807;SDS011;49961;43.970;22.868;2022-09-02T02:06:47;8.27;;;7.37;;
63807;SDS011;49961;43.970;22.868;2022-09-02T02:07:47;7.97;;;7.17;;
63807;SDS011;49961;43.970;22.868;2022-09-02T02:08:48;9.43;;;7.53;;
63807;SDS011;49961;43.970;22.868;2022-09-02T02:09:49;11.47;;;7.60;;
63807;SDS011;49961;43.970;22.868;2022-09-02T02:10:49;10.77;;;7.37;;
63807;SDS011;49961;43.970;22.868;2022-09-02T02:11:50;9.73;;;7.70;;
63807;SDS011;49961;43.970;22.868;2022-09-02T02:12:51;15.90;;;7.60;;
63807;SDS011;49961;43.970;22.868;2022-09-02T02:13:51;9.53;;;7.60;;
63807;SDS011;49961;43.970;22.868;2022-09-02T02:14:52;10.67;;;7.67;;
63807;SDS011;49961;43.970;22.868;2022-09-02T02:15:53;10.80;;;7.60;;
63807;SDS011;49961;43.970;22.868;2022-09-02T02:16:53;8.60;;;7.63;;
63807;SDS011;49961;43.970;22.868;2022-09-02T02:17:54;8.20;;;7.40;;
63807;SDS011;49961;43.970;22.868;2022-09-02T02:18:54;10.63;;;7.43;;
63807;SDS011;49961;43.970;22.868;2022-09-02T02:19:55;10.80;;;7.17;;
63807;SDS011;49961;43.970;22.868;2022-09-02T02:20:55;8.67;;;7.53;;
63807;SDS011;49961;43.970;22.868;2022-09-02T02:21:56;7.73;;;6.70;;
63807;SDS011;49961;43.970;22.868;2022-09-02T02:22:56;7.43;;;6.70;;
63807;SDS011;49961;43.970;22.868;2022-09-02T02:23:57;7.90;;;7.10;;
63807;SDS011;49961;43.970;22.868;2022-09-02T02:25:00;8.07;;;6.77;;
63807;SDS011;49961;43.970;22.868;2022-09-02T02:26:00;10.73;;;6.73;;
63807;SDS011;49961;43.970;22.868;2022-09-02T02:27:01;8.87;;;6.57;;
63807;SDS011;49961;43.970;22.868;2022-09-02T02:28:02;10.20;;;6.60;;
63807;SDS011;49961;43.970;22.868;2022-09-02T02:29:03;7.67;;;6.30;;
63807;SDS011;49961;43.970;22.868;2022-09-02T02:30:05;7.20;;;6.50;;
63807;SDS011;49961;43.970;22.868;2022-09-02T02:31:06;8.17;;;6.10;;
63807;SDS011;49961;43.970;22.868;2022-09-02T02:32:07;6.97;;;6.27;;
63807;SDS011;49961;43.970;22.868;2022-09-02T02:33:08;9.33;;;6.30;;
63807;SDS011;49961;43.970;22.868;2022-09-02T02:34:09;6.97;;;6.27;;
63807;SDS011;49961;43.970;22.868;2022-09-02T02:35:10;6.70;;;6.00;;
63807;SDS011;49961;43.970;22.868;2022-09-02T02:36:10;7.80;;;6.43;;
63807;SDS011;49961;43.970;22.868;2022-09-02T02:37:11;7.97;;;6.83;;
63807;SDS011;49961;43.970;22.868;2022-09-02T02:38:12;7.00;;;6.30;;
63807;SDS011;49961;43.970;22.868;2022-09-02T02:39:12;8.23;;;6.43;;
63807;SDS011;49961;43.970;22.868;2022-09-02T02:40:14;8.97;;;6.80;;
63807;SDS011;49961;43.970;22.868;2022-09-02T02:41:15;9.27;;;6.20;;
63807;SDS011;49961;43.970;22.868;2022-09-02T02:42:16;7.20;;;6.50;;
63807;SDS011;49961;43.970;22.868;2022-09-02T02:43:16;8.23;;;6.23;;
63807;SDS011;49961;43.970;22.868;2022-09-02T02:44:17;8.77;;;6.50;;
63807;SDS011;49961;43.970;22.868;2022-09-02T02:45:18;8.27;;;6.50;;
63807;SDS011;49961;43.970;22.868;2022-09-02T02:46:19;10.93;;;6.50;;
63807;SDS011;49961;43.970;22.868;2022-09-02T02:47:20;7.53;;;6.53;;
63807;SDS011;49961;43.970;22.868;2022-09-02T02:48:21;7.63;;;6.80;;
63807;SDS011;49961;43.970;22.868;2022-09-02T02:49:21;9.10;;;6.20;;
63807;SDS011;49961;43.970;22.868;2022-09-02T02:50:22;8.23;;;6.90;;
63807;SDS011;49961;43.970;22.868;2022-09-02T02:51:23;8.60;;;6.67;;
63807;SDS011;49961;43.970;22.868;2022-09-02T02:52:24;6.73;;;6.03;;
63807;SDS011;49961;43.970;22.868;2022-09-02T02:53:24;9.00;;;6.37;;
63807;SDS011;49961;43.970;22.868;2022-09-02T02:54:28;7.70;;;6.53;;
63807;SDS011;49961;43.970;22.868;2022-09-02T02:55:29;7.50;;;6.20;;
63807;SDS011;49961;43.970;22.868;2022-09-02T02:56:29;7.07;;;6.37;;
63807;SDS011;49961;43.970;22.868;2022-09-02T02:57:30;7.87;;;6.73;;
63807;SDS011;49961;43.970;22.868;2022-09-02T02:58:30;8.43;;;6.93;;
63807;SDS011;49961;43.970;22.868;2022-09-02T02:59:31;6.83;;;5.63;;
63807;SDS011;49961;43.970;22.868;2022-09-02T03:00:32;6.27;;;5.67;;
63807;SDS011;49961;43.970;22.868;2022-09-02T03:01:33;7.93;;;5.60;;
63807;SDS011;49961;43.970;22.868;2022-09-02T03:02:34;7.77;;;6.23;;
63807;SDS011;49961;43.970;22.868;2022-09-02T03:03:34;7.23;;;6.50;;
63807;SDS011;49961;43.970;22.868;2022-09-02T03:04:35;7.57;;;5.73;;
63807;SDS011;49961;43.970;22.868;2022-09-02T03:05:39;8.33;;;6.07;;
63807;SDS011;49961;43.970;22.868;2022-09-02T03:06:40;7.17;;;5.57;;
63807;SDS011;49961;43.970;22.868;2022-09-02T03:07:41;6.97;;;6.27;;
63807;SDS011;49961;43.970;22.868;2022-09-02T03:08:42;6.87;;;6.17;;
63807;SDS011;49961;43.970;22.868;2022-09-02T03:09:42;8.33;;;6.20;;
63807;SDS011;49961;43.970;22.868;2022-09-02T03:10:43;8.23;;;6.57;;
63807;SDS011;49961;43.970;22.868;2022-09-02T03:11:43;8.67;;;6.50;;
63807;SDS011;49961;43.970;22.868;2022-09-02T03:12:44;9.33;;;6.00;;
63807;SDS011;49961;43.970;22.868;2022-09-02T03:13:47;7.07;;;6.33;;
63807;SDS011;49961;43.970;22.868;2022-09-02T03:14:49;7.57;;;6.17;;
63807;SDS011;49961;43.970;22.868;2022-09-02T03:15:49;8.90;;;6.53;;
63807;SDS011;49961;43.970;22.868;2022-09-02T03:16:51;8.77;;;6.53;;
63807;SDS011;49961;43.970;22.868;2022-09-02T03:17:52;7.27;;;6.57;;
63807;SDS011;49961;43.970;22.868;2022-09-02T03:18:53;7.10;;;6.37;;
63807;SDS011;49961;43.970;22.868;2022-09-02T03:19:54;8.13;;;6.60;;
63807;SDS011;49961;43.970;22.868;2022-09-02T03:20:56;6.93;;;6.23;;
63807;SDS011;49961;43.970;22.868;2022-09-02T03:21:57;7.20;;;6.50;;
63807;SDS011;49961;43.970;22.868;2022-09-02T03:22:58;7.10;;;6.40;;
63807;SDS011;49961;43.970;22.868;2022-09-02T03:23:59;7.80;;;6.93;;
63807;SDS011;49961;43.970;22.868;2022-09-02T03:24:59;7.90;;;7.20;;
63807;SDS011;49961;43.970;22.868;2022-09-02T03:26:00;8.37;;;7.20;;
63807;SDS011;49961;43.970;22.868;2022-09-02T03:27:01;8.30;;;7.13;;
63807;SDS011;49961;43.970;22.868;2022-09-02T03:28:02;8.13;;;7.33;;
63807;SDS011;49961;43.970;22.868;2022-09-02T03:29:03;8.47;;;7.57;;
63807;SDS011;49961;43.970;22.868;2022-09-02T03:30:05;8.80;;;7.40;;
63807;SDS011;49961;43.970;22.868;2022-09-02T03:31:12;8.97;;;6.93;;
63807;SDS011;49961;43.970;22.868;2022-09-02T03:32:15;10.53;;;7.27;;
63807;SDS011;49961;43.970;22.868;2022-09-02T03:33:16;8.10;;;7.30;;
63807;SDS011;49961;43.970;22.868;2022-09-02T03:34:16;7.90;;;7.10;;
63807;SDS011;49961;43.970;22.868;2022-09-02T03:35:18;11.03;;;7.80;;
63807;SDS011;49961;43.970;22.868;2022-09-02T03:36:24;9.83;;;6.90;;
63807;SDS011;49961;43.970;22.868;2022-09-02T03:37:33;10.30;;;7.83;;
63807;SDS011;49961;43.970;22.868;2022-09-02T03:38:35;8.73;;;7.90;;
63807;SDS011;49961;43.970;22.868;2022-09-02T03:39:36;9.50;;;7.67;;
63807;SDS011;49961;43.970;22.868;2022-09-02T03:40:38;11.30;;;7.67;;
63807;SDS011;49961;43.970;22.868;2022-09-02T03:41:39;10.70;;;7.50;;
63807;SDS011;49961;43.970;22.868;2022-09-02T03:42:40;10.93;;;7.70;;
63807;SDS011;49961;43.970;22.868;2022-09-02T03:43:41;9.37;;;7.60;;
63807;SDS011;49961;43.970;22.868;2022-09-02T03:44:41;8.80;;;7.87;;
63807;SDS011;49961;43.970;22.868;2022-09-02T03:45:42;14.07;;;8.20;;
63807;SDS011;49961;43.970;22.868;2022-09-02T03:46:43;12.73;;;7.83;;
63807;SDS011;49961;43.970;22.868;2022-09-02T03:47:44;9.90;;;8.73;;
63807;SDS011;49961;43.970;22.868;2022-09-02T03:48:53;9.20;;;7.80;;
63807;SDS011;49961;43.970;22.868;2022-09-02T03:49:53;9.77;;;7.93;;
63807;SDS011;49961;43.970;22.868;2022-09-02T03:50:54;9.53;;;8.17;;
63807;SDS011;49961;43.970;22.868;2022-09-02T03:51:55;11.17;;;7.83;;
63807;SDS011;49961;43.970;22.868;2022-09-02T03:52:55;11.20;;;8.20;;
63807;SDS011;49961;43.970;22.868;2022-09-02T03:53:58;9.77;;;7.87;;
63807;SDS011;49961;43.970;22.868;2022-09-02T03:54:59;10.33;;;7.70;;
63807;SDS011;49961;43.970;22.868;2022-09-02T03:56:03;10.10;;;7.80;;
63807;SDS011;49961;43.970;22.868;2022-09-02T03:57:08;9.63;;;8.43;;
63807;SDS011;49961;43.970;22.868;2022-09-02T03:58:08;10.97;;;8.30;;
63807;SDS011;49961;43.970;22.868;2022-09-02T03:59:09;10.57;;;8.47;;
63807;SDS011;49961;43.970;22.868;2022-09-02T04:00:10;9.07;;;7.83;;
63807;SDS011;49961;43.970;22.868;2022-09-02T04:01:13;11.97;;;8.00;;
63807;SDS011;49961;43.970;22.868;2022-09-02T04:02:15;9.53;;;8.00;;
63807;SDS011;49961;43.970;22.868;2022-09-02T04:03:17;9.70;;;7.80;;
63807;SDS011;49961;43.970;22.868;2022-09-02T04:04:18;9.70;;;7.87;;
63807;SDS011;49961;43.970;22.868;2022-09-02T04:05:18;8.87;;;7.97;;
63807;SDS011;49961;43.970;22.868;2022-09-02T04:06:20;11.00;;;8.60;;
63807;SDS011;49961;43.970;22.868;2022-09-02T04:07:23;12.23;;;8.23;;
63807;SDS011;49961;43.970;22.868;2022-09-02T04:08:24;10.43;;;8.07;;
63807;SDS011;49961;43.970;22.868;2022-09-02T04:09:24;11.63;;;8.67;;
63807;SDS011;49961;43.970;22.868;2022-09-02T04:10:25;10.80;;;9.13;;
63807;SDS011;49961;43.970;22.868;2022-09-02T04:11:26;10.73;;;8.73;;
63807;SDS011;49961;43.970;22.868;2022-09-02T04:12:27;10.83;;;9.30;;
63807;SDS011;49961;43.970;22.868;2022-09-02T04:13:27;14.33;;;8.67;;
63807;SDS011;49961;43.970;22.868;2022-09-02T04:14:28;10.27;;;9.20;;
63807;SDS011;49961;43.970;22.868;2022-09-02T04:15:28;14.03;;;9.40;;
63807;SDS011;49961;43.970;22.868;2022-09-02T04:16:29;10.67;;;9.23;;
63807;SDS011;49961;43.970;22.868;2022-09-02T04:17:29;12.63;;;9.87;;
63807;SDS011;49961;43.970;22.868;2022-09-02T04:18:30;13.57;;;10.10;;
63807;SDS011;49961;43.970;22.868;2022-09-02T04:19:30;17.83;;;10.60;;
63807;SDS011;49961;43.970;22.868;2022-09-02T04:20:31;13.70;;;10.00;;
63807;SDS011;49961;43.970;22.868;2022-09-02T04:21:32;12.77;;;9.67;;
63807;SDS011;49961;43.970;22.868;2022-09-02T04:22:34;16.63;;;9.90;;
63807;SDS011;49961;43.970;22.868;2022-09-02T04:23:35;13.90;;;9.43;;
63807;SDS011;49961;43.970;22.868;2022-09-02T04:24:36;11.53;;;8.93;;
63807;SDS011;49961;43.970;22.868;2022-09-02T04:25:38;10.73;;;9.03;;
63807;SDS011;49961;43.970;22.868;2022-09-02T04:26:40;11.63;;;9.63;;
63807;SDS011;49961;43.970;22.868;2022-09-02T04:27:41;11.60;;;9.20;;
63807;SDS011;49961;43.970;22.868;2022-09-02T04:28:41;12.13;;;9.60;;
63807;SDS011;49961;43.970;22.868;2022-09-02T04:29:42;15.07;;;9.57;;
63807;SDS011;49961;43.970;22.868;2022-09-02T04:30:43;13.30;;;9.20;;
63807;SDS011;49961;43.970;22.868;2022-09-02T04:31:43;10.13;;;8.90;;
63807;SDS011;49961;43.970;22.868;2022-09-02T04:32:44;9.77;;;8.47;;
63807;SDS011;49961;43.970;22.868;2022-09-02T04:33:45;11.37;;;8.70;;
63807;SDS011;49961;43.970;22.868;2022-09-02T04:34:46;11.37;;;8.73;;
63807;SDS011;49961;43.970;22.868;2022-09-02T04:35:46;9.50;;;8.33;;
63807;SDS011;49961;43.970;22.868;2022-09-02T04:36:48;10.97;;;7.60;;
63807;SDS011;49961;43.970;22.868;2022-09-02T04:37:49;11.07;;;8.23;;
63807;SDS011;49961;43.970;22.868;2022-09-02T04:38:50;9.17;;;8.10;;
63807;SDS011;49961;43.970;22.868;2022-09-02T04:39:51;11.33;;;8.10;;
63807;SDS011;49961;43.970;22.868;2022-09-02T04:40:52;9.87;;;8.43;;
63807;SDS011;49961;43.970;22.868;2022-09-02T04:41:53;10.37;;;8.73;;
63807;SDS011;49961;43.970;22.868;2022-09-02T04:42:53;10.43;;;8.50;;
63807;SDS011;49961;43.970;22.868;2022-09-02T04:43:55;10.13;;;8.80;;
63807;SDS011;49961;43.970;22.868;2022-09-02T04:44:57;9.20;;;8.17;;
63807;SDS011;49961;43.970;22.868;2022-09-02T04:45:57;12.33;;;8.70;;
63807;SDS011;49961;43.970;22.868;2022-09-02T04:46:58;9.47;;;8.47;;
63807;SDS011;49961;43.970;22.868;2022-09-02T04:47:58;12.10;;;10.53;;
63807;SDS011;49961;43.970;22.868;2022-09-02T04:48:59;12.70;;;9.60;;
63807;SDS011;49961;43.970;22.868;2022-09-02T04:49:59;13.47;;;9.63;;
63807;SDS011;49961;43.970;22.868;2022-09-02T04:51:10;11.73;;;9.70;;
63807;SDS011;49961;43.970;22.868;2022-09-02T04:52:13;12.80;;;10.57;;
63807;SDS011;49961;43.970;22.868;2022-09-02T04:53:14;12.10;;;8.93;;
63807;SDS011;49961;43.970;22.868;2022-09-02T04:54:15;13.23;;;8.63;;
63807;SDS011;49961;43.970;22.868;2022-09-02T04:55:15;16.27;;;11.57;;
63807;SDS011;49961;43.970;22.868;2022-09-02T04:56:17;13.40;;;11.63;;
63807;SDS011;49961;43.970;22.868;2022-09-02T04:57:20;13.63;;;9.00;;
63807;SDS011;49961;43.970;22.868;2022-09-02T04:58:21;9.93;;;8.00;;
63807;SDS011;49961;43.970;22.868;2022-09-02T04:59:21;11.00;;;8.10;;
63807;SDS011;49961;43.970;22.868;2022-09-02T05:00:22;9.00;;;8.10;;
63807;SDS011;49961;43.970;22.868;2022-09-02T05:01:24;9.77;;;8.23;;
63807;SDS011;49961;43.970;22.868;2022-09-02T05:02:27;9.17;;;7.20;;
63807;SDS011;49961;43.970;22.868;2022-09-02T05:03:29;8.37;;;7.20;;
63807;SDS011;49961;43.970;22.868;2022-09-02T05:04:29;9.67;;;7.33;;
63807;SDS011;49961;43.970;22.868;2022-09-02T05:05:31;9.60;;;7.27;;
63807;SDS011;49961;43.970;22.868;2022-09-02T05:06:33;9.63;;;7.37;;
63807;SDS011;49961;43.970;22.868;2022-09-02T05:07:34;9.27;;;6.73;;
63807;SDS011;49961;43.970;22.868;2022-09-02T05:08:35;8.43;;;6.83;;
63807;SDS011;49961;43.970;22.868;2022-09-02T05:09:36;8.17;;;6.20;;
63807;SDS011;49961;43.970;22.868;2022-09-02T05:10:38;9.33;;;6.20;;
63807;SDS011;49961;43.970;22.868;2022-09-02T05:11:39;7.07;;;6.20;;
63807;SDS011;49961;43.970;22.868;2022-09-02T05:12:39;6.43;;;5.53;;
63807;SDS011;49961;43.970;22.868;2022-09-02T05:13:40;7.80;;;6.17;;
63807;SDS011;49961;43.970;22.868;2022-09-02T05:14:41;8.03;;;5.43;;
63807;SDS011;49961;43.970;22.868;2022-09-02T05:15:42;5.57;;;4.83;;
63807;SDS011;49961;43.970;22.868;2022-09-02T05:16:43;6.20;;;5.00;;
63807;SDS011;49961;43.970;22.868;2022-09-02T05:17:45;6.27;;;5.10;;
63807;SDS011;49961;43.970;22.868;2022-09-02T05:18:45;10.13;;;5.23;;
63807;SDS011;49961;43.970;22.868;2022-09-02T05:19:46;6.43;;;5.07;;
63807;SDS011;49961;43.970;22.868;2022-09-02T05:20:47;6.97;;;5.60;;
63807;SDS011;49961;43.970;22.868;2022-09-02T05:21:48;6.00;;;4.67;;
63807;SDS011;49961;43.970;22.868;2022-09-02T05:22:50;7.40;;;4.60;;
63807;SDS011;49961;43.970;22.868;2022-09-02T05:23:51;5.07;;;4.03;;
63807;SDS011;49961;43.970;22.868;2022-09-02T05:24:52;8.13;;;4.00;;
63807;SDS011;49961;43.970;22.868;2022-09-02T05:25:52;4.60;;;3.60;;
63807;SDS011;49961;43.970;22.868;2022-09-02T05:26:53;6.90;;;3.40;;
63807;SDS011;49961;43.970;22.868;2022-09-02T05:27:53;6.00;;;3.20;;
63807;SDS011;49961;43.970;22.868;2022-09-02T05:28:54;5.47;;;2.80;;
63807;SDS011;49961;43.970;22.868;2022-09-02T05:29:55;5.37;;;3.13;;
63807;SDS011;49961;43.970;22.868;2022-09-02T05:31:05;5.13;;;2.73;;
63807;SDS011;49961;43.970;22.868;2022-09-02T05:32:07;5.33;;;3.10;;
63807;SDS011;49961;43.970;22.868;2022-09-02T05:33:08;5.87;;;3.07;;
63807;SDS011;49961;43.970;22.868;2022-09-02T05:34:09;4.03;;;2.70;;
63807;SDS011;49961;43.970;22.868;2022-09-02T05:35:10;4.10;;;2.80;;
63807;SDS011;49961;43.970;22.868;2022-09-02T05:36:12;5.53;;;2.70;;
63807;SDS011;49961;43.970;22.868;2022-09-02T05:37:15;4.77;;;2.63;;
63807;SDS011;49961;43.970;22.868;2022-09-02T05:38:16;6.07;;;2.70;;
63807;SDS011;49961;43.970;22.868;2022-09-02T05:39:16;6.07;;;2.63;;
63807;SDS011;49961;43.970;22.868;2022-09-02T05:40:17;5.67;;;2.50;;
63807;SDS011;49961;43.970;22.868;2022-09-02T05:41:19;5.60;;;2.63;;
63807;SDS011;49961;43.970;22.868;2022-09-02T05:42:24;8.40;;;2.67;;
63807;SDS011;49961;43.970;22.868;2022-09-02T05:43:25;5.43;;;2.50;;
63807;SDS011;49961;43.970;22.868;2022-09-02T05:44:25;7.17;;;2.83;;
63807;SDS011;49961;43.970;22.868;2022-09-02T05:45:28;5.23;;;3.10;;
63807;SDS011;49961;43.970;22.868;2022-09-02T05:46:28;4.50;;;3.10;;
63807;SDS011;49961;43.970;22.868;2022-09-02T05:47:29;5.57;;;3.47;;
63807;SDS011;49961;43.970;22.868;2022-09-02T05:48:29;5.53;;;3.30;;
63807;SDS011;49961;43.970;22.868;2022-09-02T05:49:48;5.67;;;3.33;;
63807;SDS011;49961;43.970;22.868;2022-09-02T05:50:49;3.33;;;2.77;;
63807;SDS011;49961;43.970;22.868;2022-09-02T05:51:51;6.27;;;3.57;;
63807;SDS011;49961;43.970;22.868;2022-09-02T05:52:53;5.77;;;3.33;;
63807;SDS011;49961;43.970;22.868;2022-09-02T05:53:54;6.17;;;3.60;;
63807;SDS011;49961;43.970;22.868;2022-09-02T05:54:56;5.40;;;3.30;;
63807;SDS011;49961;43.970;22.868;2022-09-02T05:55:57;6.83;;;3.63;;
63807;SDS011;49961;43.970;22.868;2022-09-02T05:57:00;8.03;;;3.77;;
63807;SDS011;49961;43.970;22.868;2022-09-02T05:58:03;6.83;;;4.00;;
63807;SDS011;49961;43.970;22.868;2022-09-02T05:59:04;5.37;;;3.90;;
63807;SDS011;49961;43.970;22.868;2022-09-02T06:00:06;6.53;;;3.73;;
63807;SDS011;49961;43.970;22.868;2022-09-02T06:01:08;7.80;;;3.80;;
63807;SDS011;49961;43.970;22.868;2022-09-02T06:02:11;5.93;;;4.00;;
63807;SDS011;49961;43.970;22.868;2022-09-02T06:03:12;7.67;;;4.00;;
63807;SDS011;49961;43.970;22.868;2022-09-02T06:04:13;7.90;;;4.27;;
63807;SDS011;49961;43.970;22.868;2022-09-02T06:05:14;8.97;;;4.40;;
63807;SDS011;49961;43.970;22.868;2022-09-02T06:06:18;8.43;;;4.40;;